sensor_id;sensor_type;location;lat;lon;timestamp;temperature;humidity
17797;DHT22;55596;53.554;9.916;2023-03-30T13:54:23;14.90;99.90
17797;DHT22;55596;53.554;9.916;2023-03-30T13:56:56;16.90;99.90
17797;DHT22;55596;53.554;9.916;2023-03-30T13:59:28;16.60;99.90
17797;DHT22;55596;53.554;9.916;2023-03-30T15:04:11;16.90;95.60
17797;DHT22;55596;53.554;9.916;2023-03-30T15:06:40;16.00;99.90
17797;DHT22;55596;53.554;9.916;2023-03-30T15:09:13;15.80;99.90
17797;DHT22;55596;53.554;9.916;2023-03-30T15:11:42;15.60;99.90
17797;DHT22;55596;53.554;9.916;2023-03-30T15:14:13;15.70;99.90
17797;DHT22;55596;53.554;9.916;2023-03-30T15:16:41;15.80;99.90
17797;DHT22;55596;53.554;9.916;2023-03-30T15:19:14;16.00;99.90
17797;DHT22;55596;53.554;9.916;2023-03-30T15:21:44;16.70;99.90
17797;DHT22;55596;53.554;9.916;2023-03-30T15:24:15;17.10;99.90
17797;DHT22;55596;53.554;9.916;2023-03-30T15:26:45;16.80;99.90
17797;DHT22;55596;53.554;9.916;2023-03-30T15:29:14;16.70;99.90
17797;DHT22;55596;53.554;9.916;2023-03-30T15:31:43;16.30;99.90
17797;DHT22;55596;53.554;9.916;2023-03-30T15:34:15;16.00;99.20
17797;DHT22;55596;53.554;9.916;2023-03-30T15:36:43;15.80;99.90
17797;DHT22;55596;53.554;9.916;2023-03-30T15:39:21;15.80;99.90
17797;DHT22;55596;53.554;9.916;2023-03-30T15:41:57;15.40;99.90
17797;DHT22;55596;53.554;9.916;2023-03-30T15:44:26;14.40;99.90
17797;DHT22;55596;53.554;9.916;2023-03-30T15:46:54;14.00;99.90
17797;DHT22;55596;53.554;9.916;2023-03-30T15:49:28;13.60;99.90
17797;DHT22;55596;53.554;9.916;2023-03-30T15:51:58;13.40;99.90
17797;DHT22;55596;53.554;9.916;2023-03-30T15:54:31;13.20;99.90
17797;DHT22;55596;53.554;9.916;2023-03-30T15:57:02;12.80;99.90
17797;DHT22;55596;53.554;9.916;2023-03-30T15:59:32;12.60;99.90
17797;DHT22;55596;53.554;9.916;2023-03-30T16:02:01;12.60;99.90
17797;DHT22;55596;53.554;9.916;2023-03-30T16:04:31;13.00;99.90
17797;DHT22;55596;53.554;9.916;2023-03-30T16:06:58;13.70;99.90
17797;DHT22;55596;53.554;9.916;2023-03-30T16:09:25;13.90;99.90
17797;DHT22;55596;53.554;9.916;2023-03-30T16:11:52;14.00;99.90
17797;DHT22;55596;53.554;9.916;2023-03-30T16:14:20;14.00;99.90
17797;DHT22;55596;53.554;9.916;2023-03-30T16:16:47;13.90;99.90
17797;DHT22;55596;53.554;9.916;2023-03-30T16:19:16;13.70;99.90
17797;DHT22;55596;53.554;9.916;2023-03-30T16:21:46;12.80;99.90
17797;DHT22;55596;53.554;9.916;2023-03-30T16:24:13;13.60;99.90
17797;DHT22;55596;53.554;9.916;2023-03-30T16:26:40;13.40;99.90
17797;DHT22;55596;53.554;9.916;2023-03-30T16:29:17;13.20;99.90
17797;DHT22;55596;53.554;9.916;2023-03-30T16:31:46;13.30;99.90
17797;DHT22;55596;53.554;9.916;2023-03-30T16:34:13;13.30;99.90
17797;DHT22;55596;53.554;9.916;2023-03-30T16:36:40;13.20;99.90
17797;DHT22;55596;53.554;9.916;2023-03-30T16:39:16;12.70;99.90
17797;DHT22;55596;53.554;9.916;2023-03-30T16:41:43;12.50;99.90
17797;DHT22;55596;53.554;9.916;2023-03-30T16:44:10;12.60;99.90
17797;DHT22;55596;53.554;9.916;2023-03-30T16:46:37;12.50;99.90
17797;DHT22;55596;53.554;9.916;2023-03-30T16:49:08;12.70;99.90
17797;DHT22;55596;53.554;9.916;2023-03-30T16:51:36;12.70;99.90
17797;DHT22;55596;53.554;9.916;2023-03-30T16:54:03;12.90;99.90
17797;DHT22;55596;53.554;9.916;2023-03-30T16:56:32;13.00;99.90
17797;DHT22;55596;53.554;9.916;2023-03-30T16:58:59;13.30;99.90
17797;DHT22;55596;53.554;9.916;2023-03-30T17:01:27;13.10;99.90
17797;DHT22;55596;53.554;9.916;2023-03-30T17:03:55;12.90;99.90
17797;DHT22;55596;53.554;9.916;2023-03-30T17:06:22;12.70;99.90
17797;DHT22;55596;53.554;9.916;2023-03-30T17:08:49;12.90;99.90
17797;DHT22;55596;53.554;9.916;2023-03-30T17:11:16;12.90;99.90
17797;DHT22;55596;53.554;9.916;2023-03-30T17:13:45;13.10;99.90
17797;DHT22;55596;53.554;9.916;2023-03-30T17:16:14;13.00;99.90
17797;DHT22;55596;53.554;9.916;2023-03-30T17:18:41;12.90;99.90
17797;DHT22;55596;53.554;9.916;2023-03-30T17:21:08;12.50;99.90
17797;DHT22;55596;53.554;9.916;2023-03-30T17:23:41;12.70;99.90
17797;DHT22;55596;53.554;9.916;2023-03-30T17:26:09;12.20;99.90
17797;DHT22;55596;53.554;9.916;2023-03-30T17:28:37;12.20;99.90
17797;DHT22;55596;53.554;9.916;2023-03-30T17:31:12;12.00;99.90
17797;DHT22;55596;53.554;9.916;2023-03-30T17:33:40;12.40;99.90
17797;DHT22;55596;53.554;9.916;2023-03-30T17:36:11;12.40;99.90
17797;DHT22;55596;53.554;9.916;2023-03-30T17:38:40;12.40;99.90
17797;DHT22;55596;53.554;9.916;2023-03-30T17:41:10;12.10;99.90
17797;DHT22;55596;53.554;9.916;2023-03-30T17:43:37;12.00;99.90
17797;DHT22;55596;53.554;9.916;2023-03-30T17:46:06;11.80;99.90
17797;DHT22;55596;53.554;9.916;2023-03-30T17:48:33;11.70;99.90
17797;DHT22;55596;53.554;9.916;2023-03-30T17:51:00;11.50;99.90
17797;DHT22;55596;53.554;9.916;2023-03-30T17:53:27;11.30;99.90
17797;DHT22;55596;53.554;9.916;2023-03-30T17:55:54;11.40;99.90
17797;DHT22;55596;53.554;9.916;2023-03-30T17:58:22;12.40;99.90
17797;DHT22;55596;53.554;9.916;2023-03-30T18:00:51;11.30;99.90
17797;DHT22;55596;53.554;9.916;2023-03-30T18:03:21;11.50;99.90
17797;DHT22;55596;53.554;9.916;2023-03-30T18:05:50;11.30;99.90
17797;DHT22;55596;53.554;9.916;2023-03-30T18:08:19;11.60;99.90
17797;DHT22;55596;53.554;9.916;2023-03-30T18:10:49;11.40;99.90
17797;DHT22;55596;53.554;9.916;2023-03-30T18:13:17;11.70;99.90
17797;DHT22;55596;53.554;9.916;2023-03-30T18:15:47;11.60;99.90
17797;DHT22;55596;53.554;9.916;2023-03-30T18:18:15;12.10;99.90
17797;DHT22;55596;53.554;9.916;2023-03-30T18:20:49;12.20;99.90
17797;DHT22;55596;53.554;9.916;2023-03-30T18:23:16;11.30;99.90
17797;DHT22;55596;53.554;9.916;2023-03-30T18:25:43;11.90;99.90
17797;DHT22;55596;53.554;9.916;2023-03-30T18:28:14;10.70;99.90
17797;DHT22;55596;53.554;9.916;2023-03-30T18:30:42;11.00;99.90
17797;DHT22;55596;53.554;9.916;2023-03-30T18:33:09;10.80;99.90
17797;DHT22;55596;53.554;9.916;2023-03-30T18:35:36;10.80;99.90
17797;DHT22;55596;53.554;9.916;2023-03-30T18:38:05;10.60;99.90
17797;DHT22;55596;53.554;9.916;2023-03-30T18:40:34;10.30;99.90
17797;DHT22;55596;53.554;9.916;2023-03-30T18:45:30;10.50;99.90
17797;DHT22;55596;53.554;9.916;2023-03-30T18:47:59;10.00;99.90
17797;DHT22;55596;53.554;9.916;2023-03-30T18:50:31;9.80;99.90
17797;DHT22;55596;53.554;9.916;2023-03-30T18:55:28;10.20;99.90
17797;DHT22;55596;53.554;9.916;2023-03-30T19:00:24;9.80;99.90
17797;DHT22;55596;53.554;9.916;2023-03-30T19:02:52;10.10;99.90
17797;DHT22;55596;53.554;9.916;2023-03-30T19:05:22;10.10;99.90
17797;DHT22;55596;53.554;9.916;2023-03-30T19:10:18;9.80;99.90
17797;DHT22;55596;53.554;9.916;2023-03-30T19:12:49;10.10;99.90
17797;DHT22;55596;53.554;9.916;2023-03-30T19:15:21;9.90;99.90
17797;DHT22;55596;53.554;9.916;2023-03-30T19:20:17;9.90;99.90
17797;DHT22;55596;53.554;9.916;2023-03-30T19:22:45;10.20;99.90
17797;DHT22;55596;53.554;9.916;2023-03-30T19:25:12;10.30;99.90
17797;DHT22;55596;53.554;9.916;2023-03-30T19:27:41;10.30;99.90
17797;DHT22;55596;53.554;9.916;2023-03-30T19:30:11;10.20;99.90
17797;DHT22;55596;53.554;9.916;2023-03-30T19:35:07;10.50;99.90
17797;DHT22;55596;53.554;9.916;2023-03-30T19:40:02;10.20;99.90
17797;DHT22;55596;53.554;9.916;2023-03-30T19:42:30;10.20;99.90
17797;DHT22;55596;53.554;9.916;2023-03-30T19:44:57;10.20;99.90
17797;DHT22;55596;53.554;9.916;2023-03-30T19:47:26;10.30;99.90
17797;DHT22;55596;53.554;9.916;2023-03-30T19:49:55;10.10;99.90
17797;DHT22;55596;53.554;9.916;2023-03-30T19:52:22;10.40;99.90
17797;DHT22;55596;53.554;9.916;2023-03-30T19:54:49;10.30;99.90
17797;DHT22;55596;53.554;9.916;2023-03-30T19:57:17;9.90;99.90
17797;DHT22;55596;53.554;9.916;2023-03-30T19:59:44;10.00;99.90
17797;DHT22;55596;53.554;9.916;2023-03-30T20:04:40;10.10;99.90
17797;DHT22;55596;53.554;9.916;2023-03-30T20:09:36;10.10;99.90
17797;DHT22;55596;53.554;9.916;2023-03-30T20:12:04;10.30;99.90
17797;DHT22;55596;53.554;9.916;2023-03-30T20:16:58;9.90;99.90
17797;DHT22;55596;53.554;9.916;2023-03-30T20:19:26;9.90;99.90
17797;DHT22;55596;53.554;9.916;2023-03-30T20:21:54;10.10;99.90
17797;DHT22;55596;53.554;9.916;2023-03-30T20:31:43;10.10;99.90
17797;DHT22;55596;53.554;9.916;2023-03-30T20:34:11;10.00;99.90
17797;DHT22;55596;53.554;9.916;2023-03-30T20:36:46;10.00;99.90
17797;DHT22;55596;53.554;9.916;2023-03-30T20:39:20;10.20;99.90
17797;DHT22;55596;53.554;9.916;2023-03-30T20:41:51;10.30;99.90
17797;DHT22;55596;53.554;9.916;2023-03-30T20:44:22;10.00;99.90
17797;DHT22;55596;53.554;9.916;2023-03-30T20:46:55;10.00;99.90
17797;DHT22;55596;53.554;9.916;2023-03-30T20:49:23;10.00;99.90
17797;DHT22;55596;53.554;9.916;2023-03-30T20:51:50;10.00;99.90
17797;DHT22;55596;53.554;9.916;2023-03-30T20:54:18;9.80;99.90
17797;DHT22;55596;53.554;9.916;2023-03-30T20:56:45;9.80;99.90
17797;DHT22;55596;53.554;9.916;2023-03-30T20:59:12;10.10;99.90
17797;DHT22;55596;53.554;9.916;2023-03-30T21:01:39;10.00;99.90
17797;DHT22;55596;53.554;9.916;2023-03-30T21:04:07;10.10;99.90
17797;DHT22;55596;53.554;9.916;2023-03-30T21:06:34;10.00;99.90
17797;DHT22;55596;53.554;9.916;2023-03-30T21:09:03;10.10;99.90
17797;DHT22;55596;53.554;9.916;2023-03-30T21:11:39;10.10;99.90
17797;DHT22;55596;53.554;9.916;2023-03-30T21:14:09;9.90;99.90
17797;DHT22;55596;53.554;9.916;2023-03-30T21:16:37;10.10;99.90
17797;DHT22;55596;53.554;9.916;2023-03-30T21:19:06;10.10;99.90
17797;DHT22;55596;53.554;9.916;2023-03-30T21:21:34;9.90;99.90
17797;DHT22;55596;53.554;9.916;2023-03-30T21:24:02;10.00;99.90
17797;DHT22;55596;53.554;9.916;2023-03-30T21:26:29;10.00;99.90
17797;DHT22;55596;53.554;9.916;2023-03-30T21:28:58;10.10;99.90
17797;DHT22;55596;53.554;9.916;2023-03-30T21:31:25;10.20;99.90
17797;DHT22;55596;53.554;9.916;2023-03-30T21:33:52;10.00;99.90
17797;DHT22;55596;53.554;9.916;2023-03-30T21:36:19;10.10;99.90
17797;DHT22;55596;53.554;9.916;2023-03-30T21:39:06;10.00;99.90
17797;DHT22;55596;53.554;9.916;2023-03-30T21:41:33;10.00;99.90
17797;DHT22;55596;53.554;9.916;2023-03-30T21:44:02;10.10;99.90
17797;DHT22;55596;53.554;9.916;2023-03-30T21:46:29;10.10;99.90
17797;DHT22;55596;53.554;9.916;2023-03-30T21:48:56;10.00;99.90
17797;DHT22;55596;53.554;9.916;2023-03-30T21:51:24;9.90;99.90
17797;DHT22;55596;53.554;9.916;2023-03-30T21:53:52;10.00;99.90
17797;DHT22;55596;53.554;9.916;2023-03-30T21:56:21;10.00;99.90
17797;DHT22;55596;53.554;9.916;2023-03-30T22:01:18;9.90;99.90
17797;DHT22;55596;53.554;9.916;2023-03-30T22:03:45;9.90;99.90
17797;DHT22;55596;53.554;9.916;2023-03-30T22:06:14;10.20;99.90
17797;DHT22;55596;53.554;9.916;2023-03-30T22:08:41;9.90;99.90
17797;DHT22;55596;53.554;9.916;2023-03-30T22:11:11;10.00;99.90
17797;DHT22;55596;53.554;9.916;2023-03-30T22:13:38;10.10;99.90
17797;DHT22;55596;53.554;9.916;2023-03-30T22:16:12;10.20;99.90
17797;DHT22;55596;53.554;9.916;2023-03-30T22:18:42;9.90;99.90
17797;DHT22;55596;53.554;9.916;2023-03-30T22:21:13;10.10;99.90
17797;DHT22;55596;53.554;9.916;2023-03-30T22:23:40;9.90;99.90
17797;DHT22;55596;53.554;9.916;2023-03-30T22:28:34;10.00;99.90
17797;DHT22;55596;53.554;9.916;2023-03-30T22:35:57;10.00;99.90
17797;DHT22;55596;53.554;9.916;2023-03-30T22:38:24;9.80;99.90
17797;DHT22;55596;53.554;9.916;2023-03-30T22:40:58;9.80;99.90
17797;DHT22;55596;53.554;9.916;2023-03-30T22:43:26;9.90;99.90
17797;DHT22;55596;53.554;9.916;2023-03-30T22:45:52;10.10;99.90
17797;DHT22;55596;53.554;9.916;2023-03-30T22:48:19;9.90;99.90
17797;DHT22;55596;53.554;9.916;2023-03-30T22:53:15;10.00;99.90
17797;DHT22;55596;53.554;9.916;2023-03-30T22:55:45;9.90;99.90
17797;DHT22;55596;53.554;9.916;2023-03-30T22:58:13;10.00;99.90
17797;DHT22;55596;53.554;9.916;2023-03-30T23:00:40;10.10;99.90
17797;DHT22;55596;53.554;9.916;2023-03-30T23:03:07;9.80;99.90
17797;DHT22;55596;53.554;9.916;2023-03-30T23:05:34;9.90;99.90
17797;DHT22;55596;53.554;9.916;2023-03-30T23:08:00;10.00;99.90
17797;DHT22;55596;53.554;9.916;2023-03-30T23:10:29;10.10;99.90
17797;DHT22;55596;53.554;9.916;2023-03-30T23:15:25;10.00;99.90
17797;DHT22;55596;53.554;9.916;2023-03-30T23:17:53;9.80;99.90
17797;DHT22;55596;53.554;9.916;2023-03-30T23:20:20;9.90;99.90
17797;DHT22;55596;53.554;9.916;2023-03-30T23:22:48;10.00;99.90
17797;DHT22;55596;53.554;9.916;2023-03-30T23:25:15;10.00;99.90
17797;DHT22;55596;53.554;9.916;2023-03-30T23:27:43;10.00;99.90
17797;DHT22;55596;53.554;9.916;2023-03-30T23:30:11;10.20;99.90
17797;DHT22;55596;53.554;9.916;2023-03-30T23:32:38;10.20;99.90
17797;DHT22;55596;53.554;9.916;2023-03-30T23:35:05;10.10;99.90
17797;DHT22;55596;53.554;9.916;2023-03-30T23:37:32;10.00;99.90
17797;DHT22;55596;53.554;9.916;2023-03-30T23:40:01;9.90;99.90
17797;DHT22;55596;53.554;9.916;2023-03-30T23:42:31;10.00;99.90
17797;DHT22;55596;53.554;9.916;2023-03-30T23:45:00;9.80;99.90
17797;DHT22;55596;53.554;9.916;2023-03-30T23:47:26;10.00;99.90
17797;DHT22;55596;53.554;9.916;2023-03-30T23:49:53;9.90;99.90
17797;DHT22;55596;53.554;9.916;2023-03-30T23:52:20;9.80;99.90
17797;DHT22;55596;53.554;9.916;2023-03-30T23:54:47;10.00;99.90
17797;DHT22;55596;53.554;9.916;2023-03-30T23:57:16;9.90;99.90
17797;DHT22;55596;53.554;9.916;2023-03-30T23:59:43;9.90;99.90
